sensor_id;sensor_type;location;lat;lon;timestamp;P1;P2;P0
57049;PMS7003;42935;50.966;16.992;2023-01-24T00:03:02;78;54;30
57049;PMS7003;42935;50.966;16.992;2023-01-24T00:06:18;81;58;34
57049;PMS7003;42935;50.966;16.992;2023-01-24T00:09:30;80;58;35
57049;PMS7003;42935;50.966;16.992;2023-01-24T00:12:36;87;60;36
57049;PMS7003;42935;50.966;16.992;2023-01-24T00:15:45;79;54;32
57049;PMS7003;42935;50.966;16.992;2023-01-24T00:18:57;76;54;32
57049;PMS7003;42935;50.966;16.992;2023-01-24T00:22:09;79;54;32
57049;PMS7003;42935;50.966;16.992;2023-01-24T00:25:24;83;58;34
57049;PMS7003;42935;50.966;16.992;2023-01-24T00:28:35;80;54;30
57049;PMS7003;42935;50.966;16.992;2023-01-24T00:31:50;74;53;31
57049;PMS7003;42935;50.966;16.992;2023-01-24T00:34:56;74;54;32
57049;PMS7003;42935;50.966;16.992;2023-01-24T00:38:07;81;56;33
57049;PMS7003;42935;50.966;16.992;2023-01-24T00:41:23;75;52;32
57049;PMS7003;42935;50.966;16.992;2023-01-24T00:44:30;77;54;32
57049;PMS7003;42935;50.966;16.992;2023-01-24T00:47:40;75;53;31
57049;PMS7003;42935;50.966;16.992;2023-01-24T00:51:00;78;56;32
57049;PMS7003;42935;50.966;16.992;2023-01-24T00:54:14;77;54;32
57049;PMS7003;42935;50.966;16.992;2023-01-24T00:57:30;79;55;32
57049;PMS7003;42935;50.966;16.992;2023-01-24T01:00:40;76;57;33
57049;PMS7003;42935;50.966;16.992;2023-01-24T01:03:53;77;54;32
57049;PMS7003;42935;50.966;16.992;2023-01-24T01:07:09;76;53;32
57049;PMS7003;42935;50.966;16.992;2023-01-24T01:10:20;79;54;31
57049;PMS7003;42935;50.966;16.992;2023-01-24T01:13:29;77;53;30
57049;PMS7003;42935;50.966;16.992;2023-01-24T01:16:36;79;57;35
57049;PMS7003;42935;50.966;16.992;2023-01-24T01:19:43;82;58;36
57049;PMS7003;42935;50.966;16.992;2023-01-24T01:23:02;82;57;34
57049;PMS7003;42935;50.966;16.992;2023-01-24T01:26:15;80;55;33
57049;PMS7003;42935;50.966;16.992;2023-01-24T01:29:34;76;54;33
57049;PMS7003;42935;50.966;16.992;2023-01-24T01:32:45;75;54;33
57049;PMS7003;42935;50.966;16.992;2023-01-24T01:36:01;78;55;33
57049;PMS7003;42935;50.966;16.992;2023-01-24T01:39:06;78;54;33
57049;PMS7003;42935;50.966;16.992;2023-01-24T01:42:17;79;55;33
57049;PMS7003;42935;50.966;16.992;2023-01-24T01:48:47;76;54;32
57049;PMS7003;42935;50.966;16.992;2023-01-24T01:52:02;76;54;31
57049;PMS7003;42935;50.966;16.992;2023-01-24T01:55:16;77;53;31
57049;PMS7003;42935;50.966;16.992;2023-01-24T01:58:28;76;55;33
57049;PMS7003;42935;50.966;16.992;2023-01-24T02:01:44;75;53;30
57049;PMS7003;42935;50.966;16.992;2023-01-24T02:04:55;74;53;32
57049;PMS7003;42935;50.966;16.992;2023-01-24T02:08:09;78;55;32
57049;PMS7003;42935;50.966;16.992;2023-01-24T02:11:22;72;51;31
57049;PMS7003;42935;50.966;16.992;2023-01-24T02:14:42;78;55;32
57049;PMS7003;42935;50.966;16.992;2023-01-24T02:18:02;78;54;32
57049;PMS7003;42935;50.966;16.992;2023-01-24T02:21:18;78;55;32
57049;PMS7003;42935;50.966;16.992;2023-01-24T02:24:26;77;54;32
57049;PMS7003;42935;50.966;16.992;2023-01-24T02:27:42;79;57;34
57049;PMS7003;42935;50.966;16.992;2023-01-24T02:30:57;77;55;33
57049;PMS7003;42935;50.966;16.992;2023-01-24T02:34:17;75;53;29
57049;PMS7003;42935;50.966;16.992;2023-01-24T02:37:28;73;54;31
57049;PMS7003;42935;50.966;16.992;2023-01-24T02:40:43;78;54;32
57049;PMS7003;42935;50.966;16.992;2023-01-24T02:43:51;79;56;33
57049;PMS7003;42935;50.966;16.992;2023-01-24T02:47:09;78;57;33
57049;PMS7003;42935;50.966;16.992;2023-01-24T02:50:26;84;59;34
57049;PMS7003;42935;50.966;16.992;2023-01-24T02:53:43;77;55;32
57049;PMS7003;42935;50.966;16.992;2023-01-24T02:56:54;76;53;32
57049;PMS7003;42935;50.966;16.992;2023-01-24T03:00:16;79;56;32
57049;PMS7003;42935;50.966;16.992;2023-01-24T03:03:32;82;56;33
57049;PMS7003;42935;50.966;16.992;2023-01-24T03:06:39;80;56;33
57049;PMS7003;42935;50.966;16.992;2023-01-24T03:09:42;75;52;31
57049;PMS7003;42935;50.966;16.992;2023-01-24T03:12:56;78;54;32
57049;PMS7003;42935;50.966;16.992;2023-01-24T03:16:18;74;52;31
57049;PMS7003;42935;50.966;16.992;2023-01-24T03:19:44;70;52;31
57049;PMS7003;42935;50.966;16.992;2023-01-24T03:23:06;72;52;31
57049;PMS7003;42935;50.966;16.992;2023-01-24T03:26:32;75;54;32
57049;PMS7003;42935;50.966;16.992;2023-01-24T03:29:56;74;54;32
57049;PMS7003;42935;50.966;16.992;2023-01-24T03:33:12;76;58;34
57049;PMS7003;42935;50.966;16.992;2023-01-24T03:36:34;71;49;28
57049;PMS7003;42935;50.966;16.992;2023-01-24T03:39:50;77;53;31
57049;PMS7003;42935;50.966;16.992;2023-01-24T03:43:04;85;59;35
57049;PMS7003;42935;50.966;16.992;2023-01-24T03:46:18;85;63;36
57049;PMS7003;42935;50.966;16.992;2023-01-24T03:49:33;88;61;35
57049;PMS7003;42935;50.966;16.992;2023-01-24T03:52:55;81;57;34
57049;PMS7003;42935;50.966;16.992;2023-01-24T03:56:06;73;54;32
57049;PMS7003;42935;50.966;16.992;2023-01-24T03:59:19;78;52;31
57049;PMS7003;42935;50.966;16.992;2023-01-24T04:02:26;70;53;31
57049;PMS7003;42935;50.966;16.992;2023-01-24T04:05:41;79;54;32
57049;PMS7003;42935;50.966;16.992;2023-01-24T04:08:52;85;61;36
57049;PMS7003;42935;50.966;16.992;2023-01-24T04:11:59;98;74;39
57049;PMS7003;42935;50.966;16.992;2023-01-24T04:18:32;81;60;35
57049;PMS7003;42935;50.966;16.992;2023-01-24T04:21:47;80;56;33
57049;PMS7003;42935;50.966;16.992;2023-01-24T04:24:56;81;57;34
57049;PMS7003;42935;50.966;16.992;2023-01-24T04:28:09;82;60;36
57049;PMS7003;42935;50.966;16.992;2023-01-24T04:31:24;74;53;32
57049;PMS7003;42935;50.966;16.992;2023-01-24T04:34:39;80;57;34
57049;PMS7003;42935;50.966;16.992;2023-01-24T04:37:58;88;62;36
57049;PMS7003;42935;50.966;16.992;2023-01-24T04:41:14;83;58;35
57049;PMS7003;42935;50.966;16.992;2023-01-24T04:44:21;83;59;34
57049;PMS7003;42935;50.966;16.992;2023-01-24T04:47:28;84;57;33
57049;PMS7003;42935;50.966;16.992;2023-01-24T04:50:39;77;55;33
57049;PMS7003;42935;50.966;16.992;2023-01-24T04:53:50;79;56;34
57049;PMS7003;42935;50.966;16.992;2023-01-24T04:56:54;74;52;33
57049;PMS7003;42935;50.966;16.992;2023-01-24T05:00:04;81;56;34
57049;PMS7003;42935;50.966;16.992;2023-01-24T05:03:15;73;54;33
57049;PMS7003;42935;50.966;16.992;2023-01-24T05:06:27;83;59;35
57049;PMS7003;42935;50.966;16.992;2023-01-24T05:09:39;78;58;33
57049;PMS7003;42935;50.966;16.992;2023-01-24T05:12:53;83;58;35
57049;PMS7003;42935;50.966;16.992;2023-01-24T05:16:08;77;56;34
57049;PMS7003;42935;50.966;16.992;2023-01-24T05:19:15;82;58;36
57049;PMS7003;42935;50.966;16.992;2023-01-24T05:22:26;79;57;34
57049;PMS7003;42935;50.966;16.992;2023-01-24T05:25:38;81;55;33
57049;PMS7003;42935;50.966;16.992;2023-01-24T05:28:57;79;56;34
57049;PMS7003;42935;50.966;16.992;2023-01-24T05:32:12;81;57;34
57049;PMS7003;42935;50.966;16.992;2023-01-24T05:35:28;77;56;33
57049;PMS7003;42935;50.966;16.992;2023-01-24T05:38:39;79;54;32
57049;PMS7003;42935;50.966;16.992;2023-01-24T05:41:50;77;55;33
57049;PMS7003;42935;50.966;16.992;2023-01-24T05:45:01;81;56;33
57049;PMS7003;42935;50.966;16.992;2023-01-24T05:48:08;74;54;32
57049;PMS7003;42935;50.966;16.992;2023-01-24T05:51:17;78;56;32
57049;PMS7003;42935;50.966;16.992;2023-01-24T05:54:33;84;60;35
57049;PMS7003;42935;50.966;16.992;2023-01-24T05:57:44;80;56;33
57049;PMS7003;42935;50.966;16.992;2023-01-24T06:00:51;82;56;34
57049;PMS7003;42935;50.966;16.992;2023-01-24T06:04:07;89;62;35
57049;PMS7003;42935;50.966;16.992;2023-01-24T06:07:18;97;70;39
57049;PMS7003;42935;50.966;16.992;2023-01-24T06:10:30;94;71;38
57049;PMS7003;42935;50.966;16.992;2023-01-24T06:13:46;97;74;42
57049;PMS7003;42935;50.966;16.992;2023-01-24T06:17:02;78;57;34
57049;PMS7003;42935;50.966;16.992;2023-01-24T06:20:13;93;71;39
57049;PMS7003;42935;50.966;16.992;2023-01-24T06:23:25;77;54;32
57049;PMS7003;42935;50.966;16.992;2023-01-24T06:26:37;84;58;34
57049;PMS7003;42935;50.966;16.992;2023-01-24T06:29:52;90;64;37
57049;PMS7003;42935;50.966;16.992;2023-01-24T06:36:34;85;60;36
57049;PMS7003;42935;50.966;16.992;2023-01-24T06:39:52;83;57;33
57049;PMS7003;42935;50.966;16.992;2023-01-24T06:43:11;79;55;32
57049;PMS7003;42935;50.966;16.992;2023-01-24T06:46:22;87;59;36
57049;PMS7003;42935;50.966;16.992;2023-01-24T06:49:33;80;59;35
57049;PMS7003;42935;50.966;16.992;2023-01-24T06:52:49;82;59;35
57049;PMS7003;42935;50.966;16.992;2023-01-24T06:56:06;80;55;34
57049;PMS7003;42935;50.966;16.992;2023-01-24T06:59:21;79;57;33
57049;PMS7003;42935;50.966;16.992;2023-01-24T07:02:36;84;58;35
57049;PMS7003;42935;50.966;16.992;2023-01-24T07:05:43;75;54;33
57049;PMS7003;42935;50.966;16.992;2023-01-24T07:08:57;80;55;33
57049;PMS7003;42935;50.966;16.992;2023-01-24T07:12:35;93;67;38
57049;PMS7003;42935;50.966;16.992;2023-01-24T07:15:50;81;58;35
57049;PMS7003;42935;50.966;16.992;2023-01-24T07:19:05;86;60;34
57049;PMS7003;42935;50.966;16.992;2023-01-24T07:22:22;78;55;32
57049;PMS7003;42935;50.966;16.992;2023-01-24T07:25:36;85;59;35
57049;PMS7003;42935;50.966;16.992;2023-01-24T07:28:53;93;66;37
57049;PMS7003;42935;50.966;16.992;2023-01-24T07:32:04;104;76;41
57049;PMS7003;42935;50.966;16.992;2023-01-24T07:35:18;111;83;47
57049;PMS7003;42935;50.966;16.992;2023-01-24T07:38:34;97;70;39
57049;PMS7003;42935;50.966;16.992;2023-01-24T07:41:49;80;58;33
57049;PMS7003;42935;50.966;16.992;2023-01-24T07:45:02;78;55;34
57049;PMS7003;42935;50.966;16.992;2023-01-24T07:48:10;79;56;33
57049;PMS7003;42935;50.966;16.992;2023-01-24T07:51:21;82;58;35
57049;PMS7003;42935;50.966;16.992;2023-01-24T07:54:32;73;53;30
57049;PMS7003;42935;50.966;16.992;2023-01-24T08:04:28;79;58;33
57049;PMS7003;42935;50.966;16.992;2023-01-24T08:07:39;83;57;34
57049;PMS7003;42935;50.966;16.992;2023-01-24T08:10:55;80;58;34
57049;PMS7003;42935;50.966;16.992;2023-01-24T08:14:10;84;57;34
57049;PMS7003;42935;50.966;16.992;2023-01-24T08:17:21;86;59;34
57049;PMS7003;42935;50.966;16.992;2023-01-24T08:20:34;77;55;32
57049;PMS7003;42935;50.966;16.992;2023-01-24T08:23:45;80;54;33
57049;PMS7003;42935;50.966;16.992;2023-01-24T08:27:00;76;55;33
57049;PMS7003;42935;50.966;16.992;2023-01-24T08:30:14;81;56;33
57049;PMS7003;42935;50.966;16.992;2023-01-24T08:33:26;82;55;33
57049;PMS7003;42935;50.966;16.992;2023-01-24T08:36:41;85;60;35
57049;PMS7003;42935;50.966;16.992;2023-01-24T08:39:52;82;58;35
57049;PMS7003;42935;50.966;16.992;2023-01-24T08:43:09;80;57;33
57049;PMS7003;42935;50.966;16.992;2023-01-24T08:46:25;79;56;32
57049;PMS7003;42935;50.966;16.992;2023-01-24T08:49:43;74;52;32
57049;PMS7003;42935;50.966;16.992;2023-01-24T08:52:58;72;52;30
57049;PMS7003;42935;50.966;16.992;2023-01-24T08:56:06;75;54;33
57049;PMS7003;42935;50.966;16.992;2023-01-24T08:59:21;77;54;32
57049;PMS7003;42935;50.966;16.992;2023-01-24T09:02:33;81;56;33
57049;PMS7003;42935;50.966;16.992;2023-01-24T09:05:44;74;53;31
57049;PMS7003;42935;50.966;16.992;2023-01-24T09:08:56;80;55;33
57049;PMS7003;42935;50.966;16.992;2023-01-24T09:12:05;78;54;32
57049;PMS7003;42935;50.966;16.992;2023-01-24T09:15:16;67;49;29
57049;PMS7003;42935;50.966;16.992;2023-01-24T09:18:25;78;55;34
57049;PMS7003;42935;50.966;16.992;2023-01-24T09:21:40;95;68;39
57049;PMS7003;42935;50.966;16.992;2023-01-24T09:24:58;91;63;37
57049;PMS7003;42935;50.966;16.992;2023-01-24T09:28:08;81;56;34
57049;PMS7003;42935;50.966;16.992;2023-01-24T09:31:19;80;57;33
57049;PMS7003;42935;50.966;16.992;2023-01-24T09:34:34;77;56;33
57049;PMS7003;42935;50.966;16.992;2023-01-24T09:37:42;79;56;35
57049;PMS7003;42935;50.966;16.992;2023-01-24T09:41:00;83;58;35
57049;PMS7003;42935;50.966;16.992;2023-01-24T09:50:59;75;54;33
57049;PMS7003;42935;50.966;16.992;2023-01-24T10:01:28;77;54;33
57049;PMS7003;42935;50.966;16.992;2023-01-24T10:04:43;78;54;33
57049;PMS7003;42935;50.966;16.992;2023-01-24T10:28:36;80;57;34
57049;PMS7003;42935;50.966;16.992;2023-01-24T10:31:39;80;56;35
57049;PMS7003;42935;50.966;16.992;2023-01-24T10:35:01;82;57;34
57049;PMS7003;42935;50.966;16.992;2023-01-24T10:38:18;76;54;32
57049;PMS7003;42935;50.966;16.992;2023-01-24T10:41:32;76;55;32
57049;PMS7003;42935;50.966;16.992;2023-01-24T10:44:47;79;54;32
57049;PMS7003;42935;50.966;16.992;2023-01-24T10:51:27;77;55;33
57049;PMS7003;42935;50.966;16.992;2023-01-24T10:57:53;75;54;32
57049;PMS7003;42935;50.966;16.992;2023-01-24T11:01:21;76;54;32
57049;PMS7003;42935;50.966;16.992;2023-01-24T11:04:30;77;54;32
57049;PMS7003;42935;50.966;16.992;2023-01-24T11:07:47;75;54;32
57049;PMS7003;42935;50.966;16.992;2023-01-24T11:11:03;67;47;27
57049;PMS7003;42935;50.966;16.992;2023-01-24T11:14:22;77;54;32
57049;PMS7003;42935;50.966;16.992;2023-01-24T11:17:40;89;62;36
57049;PMS7003;42935;50.966;16.992;2023-01-24T11:20:49;78;58;35
57049;PMS7003;42935;50.966;16.992;2023-01-24T11:24:14;81;57;34
57049;PMS7003;42935;50.966;16.992;2023-01-24T11:27:21;92;63;37
57049;PMS7003;42935;50.966;16.992;2023-01-24T11:30:38;80;58;34
57049;PMS7003;42935;50.966;16.992;2023-01-24T11:37:24;66;50;31
57049;PMS7003;42935;50.966;16.992;2023-01-24T11:47:29;76;55;32
57049;PMS7003;42935;50.966;16.992;2023-01-24T12:08:03;75;55;32
57049;PMS7003;42935;50.966;16.992;2023-01-24T12:14:56;81;56;34
57049;PMS7003;42935;50.966;16.992;2023-01-24T12:21:25;71;51;31
57049;PMS7003;42935;50.966;16.992;2023-01-24T12:24:38;72;52;30
57049;PMS7003;42935;50.966;16.992;2023-01-24T12:27:53;74;56;32
57049;PMS7003;42935;50.966;16.992;2023-01-24T12:31:08;76;52;32
57049;PMS7003;42935;50.966;16.992;2023-01-24T12:44:32;75;53;33
57049;PMS7003;42935;50.966;16.992;2023-01-24T12:47:56;80;57;34
57049;PMS7003;42935;50.966;16.992;2023-01-24T12:51:16;80;56;34
57049;PMS7003;42935;50.966;16.992;2023-01-24T12:54:47;80;56;33
57049;PMS7003;42935;50.966;16.992;2023-01-24T12:58:04;74;54;32
57049;PMS7003;42935;50.966;16.992;2023-01-24T13:11:40;92;67;40
57049;PMS7003;42935;50.966;16.992;2023-01-24T13:25:08;73;54;33
57049;PMS7003;42935;50.966;16.992;2023-01-24T13:28:38;77;53;32
57049;PMS7003;42935;50.966;16.992;2023-01-24T13:35:23;76;54;32
57049;PMS7003;42935;50.966;16.992;2023-01-24T13:38:41;76;55;32
57049;PMS7003;42935;50.966;16.992;2023-01-24T13:42:00;72;49;31
57049;PMS7003;42935;50.966;16.992;2023-01-24T13:48:44;75;53;31
57049;PMS7003;42935;50.966;16.992;2023-01-24T13:51:53;82;58;34
57049;PMS7003;42935;50.966;16.992;2023-01-24T13:58:31;77;56;32
57049;PMS7003;42935;50.966;16.992;2023-01-24T14:01:45;80;56;33
57049;PMS7003;42935;50.966;16.992;2023-01-24T14:05:00;84;61;36
57049;PMS7003;42935;50.966;16.992;2023-01-24T14:08:16;84;60;36
57049;PMS7003;42935;50.966;16.992;2023-01-24T14:11:37;87;69;39
57049;PMS7003;42935;50.966;16.992;2023-01-24T14:15:03;92;69;38
57049;PMS7003;42935;50.966;16.992;2023-01-24T14:24:56;105;82;46
57049;PMS7003;42935;50.966;16.992;2023-01-24T14:31:50;374;259;120
57049;PMS7003;42935;50.966;16.992;2023-01-24T14:38:27;127;98;56
57049;PMS7003;42935;50.966;16.992;2023-01-24T14:41:36;108;83;44
57049;PMS7003;42935;50.966;16.992;2023-01-24T14:48:13;85;61;36
57049;PMS7003;42935;50.966;16.992;2023-01-24T14:51:35;76;57;34
57049;PMS7003;42935;50.966;16.992;2023-01-24T14:55:00;77;56;35
57049;PMS7003;42935;50.966;16.992;2023-01-24T14:58:13;71;55;34
57049;PMS7003;42935;50.966;16.992;2023-01-24T15:01:31;78;56;35
57049;PMS7003;42935;50.966;16.992;2023-01-24T15:04:45;81;59;35
57049;PMS7003;42935;50.966;16.992;2023-01-24T15:08:29;86;64;37
57049;PMS7003;42935;50.966;16.992;2023-01-24T15:11:47;83;62;36
57049;PMS7003;42935;50.966;16.992;2023-01-24T15:15:03;91;72;41
57049;PMS7003;42935;50.966;16.992;2023-01-24T15:21:44;86;63;38
57049;PMS7003;42935;50.966;16.992;2023-01-24T15:24:58;96;73;40
57049;PMS7003;42935;50.966;16.992;2023-01-24T15:31:34;90;68;40
57049;PMS7003;42935;50.966;16.992;2023-01-24T15:34:49;95;73;43
57049;PMS7003;42935;50.966;16.992;2023-01-24T15:45:03;121;93;51
57049;PMS7003;42935;50.966;16.992;2023-01-24T15:48:55;92;71;40
57049;PMS7003;42935;50.966;16.992;2023-01-24T15:52:13;99;80;46
57049;PMS7003;42935;50.966;16.992;2023-01-24T15:55:25;91;72;42
57049;PMS7003;42935;50.966;16.992;2023-01-24T15:58:42;87;69;41
57049;PMS7003;42935;50.966;16.992;2023-01-24T16:02:00;85;67;40
57049;PMS7003;42935;50.966;16.992;2023-01-24T16:05:14;89;64;39
57049;PMS7003;42935;50.966;16.992;2023-01-24T16:08:29;80;59;35
57049;PMS7003;42935;50.966;16.992;2023-01-24T16:11:45;84;60;37
57049;PMS7003;42935;50.966;16.992;2023-01-24T16:14:57;101;75;42
57049;PMS7003;42935;50.966;16.992;2023-01-24T16:18:09;117;85;48
57049;PMS7003;42935;50.966;16.992;2023-01-24T16:21:20;113;85;46
57049;PMS7003;42935;50.966;16.992;2023-01-24T16:24:31;112;84;45
57049;PMS7003;42935;50.966;16.992;2023-01-24T16:27:48;82;59;37
57049;PMS7003;42935;50.966;16.992;2023-01-24T16:31:11;88;67;40
57049;PMS7003;42935;50.966;16.992;2023-01-24T16:34:24;87;64;39
57049;PMS7003;42935;50.966;16.992;2023-01-24T16:37:35;89;63;37
57049;PMS7003;42935;50.966;16.992;2023-01-24T16:40:47;88;68;38
57049;PMS7003;42935;50.966;16.992;2023-01-24T16:43:54;107;85;50
57049;PMS7003;42935;50.966;16.992;2023-01-24T16:47:01;126;95;52
57049;PMS7003;42935;50.966;16.992;2023-01-24T16:50:10;100;78;43
57049;PMS7003;42935;50.966;16.992;2023-01-24T16:53:22;109;82;44
57049;PMS7003;42935;50.966;16.992;2023-01-24T16:56:34;117;85;46
57049;PMS7003;42935;50.966;16.992;2023-01-24T16:59:43;91;66;38
57049;PMS7003;42935;50.966;16.992;2023-01-24T17:02:53;151;124;73
57049;PMS7003;42935;50.966;16.992;2023-01-24T17:06:07;124;94;54
57049;PMS7003;42935;50.966;16.992;2023-01-24T17:09:19;113;87;51
57049;PMS7003;42935;50.966;16.992;2023-01-24T17:12:34;99;77;45
57049;PMS7003;42935;50.966;16.992;2023-01-24T17:15:45;111;78;42
57049;PMS7003;42935;50.966;16.992;2023-01-24T17:19:01;134;98;51
57049;PMS7003;42935;50.966;16.992;2023-01-24T17:22:16;100;74;39
57049;PMS7003;42935;50.966;16.992;2023-01-24T17:25:31;138;100;52
57049;PMS7003;42935;50.966;16.992;2023-01-24T17:28:46;136;100;53
57049;PMS7003;42935;50.966;16.992;2023-01-24T17:31:53;137;99;53
57049;PMS7003;42935;50.966;16.992;2023-01-24T17:35:08;131;96;50
57049;PMS7003;42935;50.966;16.992;2023-01-24T17:38:15;144;108;58
57049;PMS7003;42935;50.966;16.992;2023-01-24T17:41:30;102;74;41
57049;PMS7003;42935;50.966;16.992;2023-01-24T17:44:45;89;65;38
57049;PMS7003;42935;50.966;16.992;2023-01-24T17:48:00;80;58;35
57049;PMS7003;42935;50.966;16.992;2023-01-24T17:51:16;118;90;47
57049;PMS7003;42935;50.966;16.992;2023-01-24T17:54:27;112;84;45
57049;PMS7003;42935;50.966;16.992;2023-01-24T17:57:35;92;66;38
57049;PMS7003;42935;50.966;16.992;2023-01-24T18:00:45;83;64;37
57049;PMS7003;42935;50.966;16.992;2023-01-24T18:04:00;100;76;42
57049;PMS7003;42935;50.966;16.992;2023-01-24T18:07:16;95;75;41
57049;PMS7003;42935;50.966;16.992;2023-01-24T18:10:22;83;65;38
57049;PMS7003;42935;50.966;16.992;2023-01-24T18:13:33;85;60;35
57049;PMS7003;42935;50.966;16.992;2023-01-24T18:16:41;84;59;35
57049;PMS7003;42935;50.966;16.992;2023-01-24T18:19:56;77;56;31
57049;PMS7003;42935;50.966;16.992;2023-01-24T18:23:02;137;112;63
57049;PMS7003;42935;50.966;16.992;2023-01-24T18:26:14;88;67;39
57049;PMS7003;42935;50.966;16.992;2023-01-24T18:29:25;89;65;37
57049;PMS7003;42935;50.966;16.992;2023-01-24T18:32:36;89;62;37
57049;PMS7003;42935;50.966;16.992;2023-01-24T18:35:47;92;70;39
57049;PMS7003;42935;50.966;16.992;2023-01-24T18:38:54;101;77;41
57049;PMS7003;42935;50.966;16.992;2023-01-24T18:42:14;99;71;40
57049;PMS7003;42935;50.966;16.992;2023-01-24T18:45:25;90;64;39
57049;PMS7003;42935;50.966;16.992;2023-01-24T18:48:37;91;68;38
57049;PMS7003;42935;50.966;16.992;2023-01-24T18:51:49;97;76;42
57049;PMS7003;42935;50.966;16.992;2023-01-24T18:54:56;97;80;44
57049;PMS7003;42935;50.966;16.992;2023-01-24T18:58:14;94;75;42
57049;PMS7003;42935;50.966;16.992;2023-01-24T19:01:25;113;84;45
57049;PMS7003;42935;50.966;16.992;2023-01-24T19:04:40;108;80;44
57049;PMS7003;42935;50.966;16.992;2023-01-24T19:07:49;107;83;46
57049;PMS7003;42935;50.966;16.992;2023-01-24T19:11:06;98;73;42
57049;PMS7003;42935;50.966;16.992;2023-01-24T19:14:24;99;76;42
57049;PMS7003;42935;50.966;16.992;2023-01-24T19:17:39;124;93;53
57049;PMS7003;42935;50.966;16.992;2023-01-24T19:20:54;127;94;50
57049;PMS7003;42935;50.966;16.992;2023-01-24T19:24:07;149;117;64
57049;PMS7003;42935;50.966;16.992;2023-01-24T19:27:14;148;109;60
57049;PMS7003;42935;50.966;16.992;2023-01-24T19:30:21;175;130;68
57049;PMS7003;42935;50.966;16.992;2023-01-24T19:33:30;124;93;49
57049;PMS7003;42935;50.966;16.992;2023-01-24T19:36:41;122;93;46
57049;PMS7003;42935;50.966;16.992;2023-01-24T19:39:48;118;86;47
57049;PMS7003;42935;50.966;16.992;2023-01-24T19:42:59;119;90;49
57049;PMS7003;42935;50.966;16.992;2023-01-24T19:46:13;143;110;59
57049;PMS7003;42935;50.966;16.992;2023-01-24T19:49:25;129;95;54
57049;PMS7003;42935;50.966;16.992;2023-01-24T19:52:40;115;84;47
57049;PMS7003;42935;50.966;16.992;2023-01-24T19:56:04;103;76;39
57049;PMS7003;42935;50.966;16.992;2023-01-24T19:59:13;161;112;57
57049;PMS7003;42935;50.966;16.992;2023-01-24T20:02:28;127;89;46
57049;PMS7003;42935;50.966;16.992;2023-01-24T20:05:39;269;180;85
57049;PMS7003;42935;50.966;16.992;2023-01-24T20:08:50;126;88;49
57049;PMS7003;42935;50.966;16.992;2023-01-24T20:12:06;104;83;44
57049;PMS7003;42935;50.966;16.992;2023-01-24T20:15:21;106;77;43
57049;PMS7003;42935;50.966;16.992;2023-01-24T20:18:36;99;73;41
57049;PMS7003;42935;50.966;16.992;2023-01-24T20:21:47;101;74;41
57049;PMS7003;42935;50.966;16.992;2023-01-24T20:24:59;115;85;44
57049;PMS7003;42935;50.966;16.992;2023-01-24T20:28:10;143;109;56
57049;PMS7003;42935;50.966;16.992;2023-01-24T20:31:25;228;160;78
57049;PMS7003;42935;50.966;16.992;2023-01-24T20:34:32;193;136;70
57049;PMS7003;42935;50.966;16.992;2023-01-24T20:37:45;156;107;54
57049;PMS7003;42935;50.966;16.992;2023-01-24T20:41:06;126;94;49
57049;PMS7003;42935;50.966;16.992;2023-01-24T20:44:26;102;77;41
57049;PMS7003;42935;50.966;16.992;2023-01-24T20:47:41;131;95;51
57049;PMS7003;42935;50.966;16.992;2023-01-24T20:54:11;124;88;46
57049;PMS7003;42935;50.966;16.992;2023-01-24T20:57:25;203;144;74
57049;PMS7003;42935;50.966;16.992;2023-01-24T21:00:35;187;130;66
57049;PMS7003;42935;50.966;16.992;2023-01-24T21:03:47;161;111;58
57049;PMS7003;42935;50.966;16.992;2023-01-24T21:06:57;139;104;56
57049;PMS7003;42935;50.966;16.992;2023-01-24T21:10:12;131;100;54
57049;PMS7003;42935;50.966;16.992;2023-01-24T21:13:27;117;85;47
57049;PMS7003;42935;50.966;16.992;2023-01-24T21:16:39;136;92;47
57049;PMS7003;42935;50.966;16.992;2023-01-24T21:19:58;155;118;61
57049;PMS7003;42935;50.966;16.992;2023-01-24T21:23:15;235;172;88
57049;PMS7003;42935;50.966;16.992;2023-01-24T21:26:30;120;88;47
57049;PMS7003;42935;50.966;16.992;2023-01-24T21:29:41;106;77;42
57049;PMS7003;42935;50.966;16.992;2023-01-24T21:32:53;144;101;53
57049;PMS7003;42935;50.966;16.992;2023-01-24T21:36:13;160;109;55
57049;PMS7003;42935;50.966;16.992;2023-01-24T21:39:25;123;89;48
57049;PMS7003;42935;50.966;16.992;2023-01-24T21:42:36;119;87;48
57049;PMS7003;42935;50.966;16.992;2023-01-24T21:45:51;96;72;41
57049;PMS7003;42935;50.966;16.992;2023-01-24T21:48:58;98;72;40
57049;PMS7003;42935;50.966;16.992;2023-01-24T21:52:17;98;65;38
57049;PMS7003;42935;50.966;16.992;2023-01-24T21:55:25;92;65;37
57049;PMS7003;42935;50.966;16.992;2023-01-24T21:58:35;93;66;39
57049;PMS7003;42935;50.966;16.992;2023-01-24T22:01:52;90;62;36
57049;PMS7003;42935;50.966;16.992;2023-01-24T22:05:07;91;64;38
57049;PMS7003;42935;50.966;16.992;2023-01-24T22:08:22;83;59;35
57049;PMS7003;42935;50.966;16.992;2023-01-24T22:11:36;87;62;35
57049;PMS7003;42935;50.966;16.992;2023-01-24T22:14:49;85;60;35
57049;PMS7003;42935;50.966;16.992;2023-01-24T22:17:57;84;58;35
57049;PMS7003;42935;50.966;16.992;2023-01-24T22:21:09;79;56;33
57049;PMS7003;42935;50.966;16.992;2023-01-24T22:27:54;86;61;36
57049;PMS7003;42935;50.966;16.992;2023-01-24T22:31:10;85;63;37
57049;PMS7003;42935;50.966;16.992;2023-01-24T22:34:25;87;61;37
57049;PMS7003;42935;50.966;16.992;2023-01-24T22:37:35;72;50;30
57049;PMS7003;42935;50.966;16.992;2023-01-24T22:40:45;64;48;29
57049;PMS7003;42935;50.966;16.992;2023-01-24T22:43:51;63;45;26
57049;PMS7003;42935;50.966;16.992;2023-01-24T22:47:02;70;51;30
57049;PMS7003;42935;50.966;16.992;2023-01-24T22:50:10;70;50;31
57049;PMS7003;42935;50.966;16.992;2023-01-24T22:53:17;72;50;31
57049;PMS7003;42935;50.966;16.992;2023-01-24T22:56:31;65;47;29
57049;PMS7003;42935;50.966;16.992;2023-01-24T22:59:45;63;46;27
57049;PMS7003;42935;50.966;16.992;2023-01-24T23:02:53;65;48;29
57049;PMS7003;42935;50.966;16.992;2023-01-24T23:06:05;63;46;28
57049;PMS7003;42935;50.966;16.992;2023-01-24T23:09:21;62;44;27
57049;PMS7003;42935;50.966;16.992;2023-01-24T23:12:33;62;43;25